Producer — WDH9695 — position and weather

sailwx.info

Track history (hours):
 
Tides and Currents Weather Stations Pressure Air Temp Water Temp Dewpoint Dewpoint Depression Visibility Wind Speed Wind Dir Waves Ship Positions

Producer

Owner: Pro Sportfishing, San Diego, CA, CA. More information available from US FCC via Universal Licensing System and Coast Guard Vessel Documentation Center.

Last reported at 2017-Oct-27 19:14 UTC. Time now 2017-Nov-24 18:32 UTC.
Position N 32°43' W 117°14'.
Warning: this ship's position is 27 days out of date.

Type: Passenger vessel. MMSI: 367033990.

Date/timePositionNaut miles runAvg speedWind from/ knotsBaromVisibWave heightAir tempDewpointWater temp
2017-Oct-27 19:14N 32°43' W 117°14'0 0.0
2017-Oct-27 18:59N 32°43' W 117°14'0 0.0
2017-Oct-27 16:11N 32°43' W 117°14'0 0.0
2017-Oct-27 15:59N 32°43' W 117°14'0 0.0
2017-Oct-27 15:29N 32°43' W 117°14'0 0.0
2017-Oct-27 14:59N 32°43' W 117°14'0 0.0
2017-Oct-27 14:30N 32°43' W 117°14'0 0.0
2017-Oct-27 14:00N 32°43' W 117°14'0 0.0
2017-Oct-27 13:29N 32°43' W 117°14'0 0.0
2017-Oct-27 13:00N 32°43' W 117°14'0 0.0
2017-Oct-27 12:30N 32°43' W 117°14'0 0.0
2017-Oct-27 11:59N 32°43' W 117°14'0 0.0
2017-Oct-27 11:30N 32°43' W 117°14'0 0.0
2017-Oct-27 10:59N 32°43' W 117°14'0 0.0
2017-Oct-27 10:30N 32°43' W 117°14'0 0.0
2017-Oct-27 10:00N 32°43' W 117°14'0 0.0
2017-Oct-27 09:29N 32°43' W 117°14'0 0.0
2017-Oct-27 09:00N 32°43' W 117°14'0 0.0
2017-Oct-27 08:30N 32°43' W 117°14'0 0.0
2017-Oct-27 07:59N 32°43' W 117°14'0 0.0
2017-Oct-27 07:30N 32°43' W 117°14'0 0.0
2017-Oct-27 07:00N 32°43' W 117°14'0 0.0
2017-Oct-27 06:30N 32°43' W 117°14'0 0.0
2017-Oct-27 05:59N 32°43' W 117°14'0 0.0
2017-Oct-27 05:29N 32°43' W 117°14'0 0.0
2017-Oct-27 05:00N 32°43' W 117°14'0 0.0
2017-Oct-27 04:29N 32°43' W 117°14'0 0.0
2017-Oct-27 04:00N 32°43' W 117°14'0 0.0
2017-Oct-27 03:29N 32°43' W 117°14'0 0.0
2017-Oct-27 02:59N 32°43' W 117°14'0 0.0
2017-Oct-27 02:29N 32°43' W 117°14'  
2017-Oct-19 07:17N 32°39' W 117°22'3 9.7
2017-Oct-19 07:00N 32°40' W 117°26'5 9.4
2017-Oct-19 06:31N 32°40' W 117°31'5 9.2
2017-Oct-19 06:00N 32°40' W 117°37'6 9.0
2017-Oct-19 05:18N 32°40' W 117°44'3 9.0
2017-Oct-19 04:55N 32°40' W 117°48'8 9.2
2017-Oct-19 04:06N 32°40' W 117°57'19 9.1
2017-Oct-19 01:57N 32°40' W 118°20'8 3.2
2017-Oct-18 23:24N 32°48' W 118°24'1 2.1
2017-Oct-18 23:00N 32°49' W 118°24'2 0.5
2017-Oct-18 18:59N 32°49' W 118°22'0 0.0
2017-Oct-18 18:26N 32°49' W 118°22'0 0.0
2017-Oct-18 18:00N 32°49' W 118°22'1 0.2
2017-Oct-18 10:26N 32°49' W 118°23'0 0.0
2017-Oct-18 10:00N 32°49' W 118°23'0 0.0
2017-Oct-18 09:22N 32°49' W 118°23'0 0.1
2017-Oct-18 08:59N 32°49' W 118°23'0 0.1
2017-Oct-18 08:27N 32°49' W 118°23'5 1.1
2017-Oct-18 04:12N 32°45' W 118°26'2 9.1
2017-Oct-18 03:56N 32°43' W 118°28'2 4.6
2017-Oct-18 03:30N 32°42' W 118°30'0 0.2
2017-Oct-18 01:55N 32°42' W 118°30'4 1.8
2017-Oct-17 23:32N 32°41' W 118°35'1 9.7
2017-Oct-17 23:29N 32°41' W 118°36'7 9.2
2017-Oct-17 22:46N 32°41' W 118°44'2 9.3
2017-Oct-17 22:30N 32°41' W 118°46'5 9.4
2017-Oct-17 21:58N 32°41' W 118°52'4 9.5
2017-Oct-17 21:30N 32°41' W 118°58'5 9.9
2017-Oct-17 21:00N 32°41' W 119°04'4 6.9
2017-Oct-17 20:28N 32°42' W 119°08'  
Track history (hours):
 
Tides and Currents Weather Stations Pressure Air Temp Water Temp Dewpoint Dewpoint Depression Visibility Wind Speed Wind Dir Waves Ship Positions

Producer

Owner: Pro Sportfishing, San Diego, CA, CA. More information available from US FCC via Universal Licensing System and Coast Guard Vessel Documentation Center.

Last reported at 2017-Oct-27 19:14 UTC. Time now 2017-Nov-24 18:32 UTC.
Position N 32°43' W 117°14'.
Warning: this ship's position is 27 days out of date.

Type: Passenger vessel. MMSI: 367033990.

Date/timePositionNaut miles runAvg speedWind from/ knotsBaromVisibWave heightAir tempDewpointWater temp
2017-Oct-27 19:14N 32°43' W 117°14'0 0.0
2017-Oct-27 18:59N 32°43' W 117°14'0 0.0
2017-Oct-27 16:11N 32°43' W 117°14'0 0.0
2017-Oct-27 15:59N 32°43' W 117°14'0 0.0
2017-Oct-27 15:29N 32°43' W 117°14'0 0.0
2017-Oct-27 14:59N 32°43' W 117°14'0 0.0
2017-Oct-27 14:30N 32°43' W 117°14'0 0.0
2017-Oct-27 14:00N 32°43' W 117°14'0 0.0
2017-Oct-27 13:29N 32°43' W 117°14'0 0.0
2017-Oct-27 13:00N 32°43' W 117°14'0 0.0
2017-Oct-27 12:30N 32°43' W 117°14'0 0.0
2017-Oct-27 11:59N 32°43' W 117°14'0 0.0
2017-Oct-27 11:30N 32°43' W 117°14'0 0.0
2017-Oct-27 10:59N 32°43' W 117°14'0 0.0
2017-Oct-27 10:30N 32°43' W 117°14'0 0.0
2017-Oct-27 10:00N 32°43' W 117°14'0 0.0
2017-Oct-27 09:29N 32°43' W 117°14'0 0.0
2017-Oct-27 09:00N 32°43' W 117°14'0 0.0
2017-Oct-27 08:30N 32°43' W 117°14'0 0.0
2017-Oct-27 07:59N 32°43' W 117°14'0 0.0
2017-Oct-27 07:30N 32°43' W 117°14'0 0.0
2017-Oct-27 07:00N 32°43' W 117°14'0 0.0
2017-Oct-27 06:30N 32°43' W 117°14'0 0.0
2017-Oct-27 05:59N 32°43' W 117°14'0 0.0
2017-Oct-27 05:29N 32°43' W 117°14'0 0.0
2017-Oct-27 05:00N 32°43' W 117°14'0 0.0
2017-Oct-27 04:29N 32°43' W 117°14'0 0.0
2017-Oct-27 04:00N 32°43' W 117°14'0 0.0
2017-Oct-27 03:29N 32°43' W 117°14'0 0.0
2017-Oct-27 02:59N 32°43' W 117°14'0 0.0
2017-Oct-27 02:29N 32°43' W 117°14'  
2017-Oct-19 07:17N 32°39' W 117°22'3 9.7
2017-Oct-19 07:00N 32°40' W 117°26'5 9.4
2017-Oct-19 06:31N 32°40' W 117°31'5 9.2
2017-Oct-19 06:00N 32°40' W 117°37'6 9.0
2017-Oct-19 05:18N 32°40' W 117°44'3 9.0
2017-Oct-19 04:55N 32°40' W 117°48'8 9.2
2017-Oct-19 04:06N 32°40' W 117°57'19 9.1
2017-Oct-19 01:57N 32°40' W 118°20'8 3.2
2017-Oct-18 23:24N 32°48' W 118°24'1 2.1
2017-Oct-18 23:00N 32°49' W 118°24'2 0.5
2017-Oct-18 18:59N 32°49' W 118°22'0 0.0
2017-Oct-18 18:26N 32°49' W 118°22'0 0.0
2017-Oct-18 18:00N 32°49' W 118°22'1 0.2
2017-Oct-18 10:26N 32°49' W 118°23'0 0.0
2017-Oct-18 10:00N 32°49' W 118°23'0 0.0
2017-Oct-18 09:22N 32°49' W 118°23'0 0.1
2017-Oct-18 08:59N 32°49' W 118°23'0 0.1
2017-Oct-18 08:27N 32°49' W 118°23'5 1.1
2017-Oct-18 04:12N 32°45' W 118°26'2 9.1
2017-Oct-18 03:56N 32°43' W 118°28'2 4.6
2017-Oct-18 03:30N 32°42' W 118°30'0 0.2
2017-Oct-18 01:55N 32°42' W 118°30'4 1.8
2017-Oct-17 23:32N 32°41' W 118°35'1 9.7
2017-Oct-17 23:29N 32°41' W 118°36'7 9.2
2017-Oct-17 22:46N 32°41' W 118°44'2 9.3
2017-Oct-17 22:30N 32°41' W 118°46'5 9.4
2017-Oct-17 21:58N 32°41' W 118°52'4 9.5
2017-Oct-17 21:30N 32°41' W 118°58'5 9.9
2017-Oct-17 21:00N 32°41' W 119°04'4 6.9
2017-Oct-17 20:28N 32°42' W 119°08'  

Dump ship's entire track history